createdAt,value
2022-08-30T00:02:20.875Z,17.14
2022-08-30T00:04:49.813Z,17.13
2022-08-30T00:07:19.035Z,17.11
2022-08-30T00:09:48.093Z,17.12
2022-08-30T00:12:14.688Z,17.10
2022-08-30T00:14:41.241Z,17.05
2022-08-30T00:17:07.856Z,17.10
2022-08-30T00:19:34.389Z,17.07
2022-08-30T00:22:01.000Z,17.04
2022-08-30T00:24:27.838Z,16.98
2022-08-30T00:26:56.609Z,16.95
2022-08-30T00:29:23.204Z,16.91
2022-08-30T00:31:49.918Z,16.88
2022-08-30T00:34:18.737Z,16.82
2022-08-30T00:36:47.835Z,16.81
2022-08-30T00:39:14.410Z,16.76
2022-08-30T00:41:40.956Z,16.73
2022-08-30T00:44:07.917Z,16.69
2022-08-30T00:46:34.493Z,16.66
2022-08-30T00:49:05.385Z,16.63
2022-08-30T00:51:34.782Z,16.58
2022-08-30T00:54:01.866Z,16.56
2022-08-30T00:56:29.794Z,16.56
2022-08-30T00:59:01.840Z,16.52
2022-08-30T01:01:30.321Z,16.53
2022-08-30T01:04:00.185Z,16.42
2022-08-30T01:06:32.833Z,16.50
2022-08-30T01:09:04.350Z,16.53
2022-08-30T01:11:34.693Z,16.55
2022-08-30T01:14:03.152Z,16.57
2022-08-30T01:16:32.356Z,16.56
2022-08-30T01:19:00.299Z,16.52
2022-08-30T01:21:35.343Z,16.50
2022-08-30T01:24:02.847Z,16.48
2022-08-30T01:26:30.981Z,16.48
2022-08-30T01:29:04.887Z,16.38
2022-08-30T01:31:32.731Z,16.40
2022-08-30T01:34:01.227Z,16.37
2022-08-30T01:36:27.877Z,16.30
2022-08-30T01:38:57.564Z,16.26
2022-08-30T01:41:24.009Z,16.30
2022-08-30T01:43:52.515Z,16.29
2022-08-30T01:46:20.942Z,16.24
2022-08-30T01:48:51.957Z,16.32
2022-08-30T01:51:23.920Z,16.32
2022-08-30T01:53:50.776Z,16.29
2022-08-30T01:56:17.865Z,16.26
2022-08-30T01:58:45.104Z,16.22
2022-08-30T02:01:16.625Z,16.12
2022-08-30T02:03:46.974Z,16.12
2022-08-30T02:06:16.973Z,16.07
2022-08-30T02:08:44.146Z,16.01
2022-08-30T02:11:11.856Z,15.98
2022-08-30T02:13:40.229Z,15.93
2022-08-30T02:16:13.722Z,15.93
2022-08-30T02:18:40.407Z,15.92
2022-08-30T02:21:08.330Z,15.87
2022-08-30T02:23:35.911Z,15.88
2022-08-30T02:26:03.472Z,15.86
2022-08-30T02:28:30.401Z,15.79
2022-08-30T02:30:59.239Z,15.81
2022-08-30T02:33:28.191Z,15.82
2022-08-30T02:35:56.140Z,15.81
2022-08-30T02:38:23.778Z,15.79
2022-08-30T02:40:51.021Z,15.78
2022-08-30T02:43:17.899Z,15.64
2022-08-30T02:45:44.789Z,15.77
2022-08-30T02:48:11.391Z,15.78
2022-08-30T02:50:43.208Z,15.81
2022-08-30T02:53:16.235Z,15.82
2022-08-30T02:55:45.877Z,15.79
2022-08-30T02:58:12.608Z,15.77
2022-08-30T03:00:39.889Z,15.75
2022-08-30T03:03:07.461Z,15.72
2022-08-30T03:05:35.097Z,15.68
2022-08-30T03:08:04.681Z,15.69
2022-08-30T03:10:31.839Z,15.67
2022-08-30T03:12:58.557Z,15.68
2022-08-30T03:15:25.791Z,15.66
2022-08-30T03:17:54.055Z,15.58
2022-08-30T03:20:22.145Z,15.59
2022-08-30T03:22:48.847Z,15.56
2022-08-30T03:25:16.325Z,15.51
2022-08-30T03:27:45.377Z,15.45
2022-08-30T03:30:14.538Z,15.46
2022-08-30T03:32:42.017Z,15.48
2022-08-30T03:35:10.278Z,15.47
2022-08-30T03:37:37.221Z,15.49
2022-08-30T03:40:07.987Z,15.52
2022-08-30T03:42:35.359Z,15.47
2022-08-30T03:45:02.449Z,15.54
2022-08-30T03:47:30.288Z,15.53
2022-08-30T03:49:57.682Z,15.51
2022-08-30T03:52:26.687Z,15.52
2022-08-30T03:54:53.260Z,15.51
2022-08-30T03:57:24.537Z,15.50
2022-08-30T03:59:51.776Z,15.49
2022-08-30T04:02:21.348Z,15.50
2022-08-30T04:04:48.125Z,15.47
2022-08-30T04:07:14.770Z,15.35
2022-08-30T04:09:41.843Z,15.42
2022-08-30T04:12:10.630Z,15.41
2022-08-30T04:14:37.463Z,15.40
2022-08-30T04:17:04.556Z,15.39
2022-08-30T04:19:31.408Z,15.41
2022-08-30T04:21:58.073Z,15.36
2022-08-30T04:24:25.375Z,15.43
2022-08-30T04:26:54.445Z,15.45
2022-08-30T04:29:20.948Z,15.43
2022-08-30T04:31:47.781Z,15.42
2022-08-30T04:34:17.253Z,15.40
2022-08-30T04:36:48.048Z,15.39
2022-08-30T04:39:16.318Z,15.40
2022-08-30T04:41:42.894Z,15.52
2022-08-30T04:44:09.468Z,15.52
2022-08-30T04:46:44.446Z,15.52
2022-08-30T04:49:13.605Z,15.53
2022-08-30T04:51:40.337Z,15.45
2022-08-30T04:54:06.946Z,15.44
2022-08-30T04:56:33.706Z,15.44
2022-08-30T04:59:00.408Z,15.55
2022-08-30T05:01:29.776Z,15.58
2022-08-30T05:03:57.593Z,15.60
2022-08-30T05:06:27.496Z,15.64
2022-08-30T05:08:54.946Z,15.63
2022-08-30T05:11:21.796Z,15.69
2022-08-30T05:13:48.753Z,15.72
2022-08-30T05:16:19.501Z,15.77
2022-08-30T05:18:48.970Z,15.84
2022-08-30T05:21:18.896Z,15.91
2022-08-30T05:23:47.627Z,15.97
2022-08-30T05:26:25.162Z,16.03
2022-08-30T05:28:52.473Z,16.06
2022-08-30T05:31:33.130Z,16.12
2022-08-30T05:34:00.251Z,16.09
2022-08-30T05:36:29.590Z,16.24
2022-08-30T05:38:56.911Z,16.35
2022-08-30T05:41:26.649Z,16.32
2022-08-30T05:43:58.748Z,16.53
2022-08-30T05:46:29.406Z,16.70
2022-08-30T05:48:57.090Z,17.18
2022-08-30T05:51:29.138Z,17.09
2022-08-30T05:53:57.917Z,17.12
2022-08-30T05:56:31.834Z,17.11
2022-08-30T05:59:01.239Z,17.14
2022-08-30T06:01:33.146Z,17.40
2022-08-30T06:04:04.175Z,17.36
2022-08-30T06:06:33.691Z,17.28
2022-08-30T06:09:00.441Z,17.20
2022-08-30T06:11:27.897Z,17.05
2022-08-30T06:13:55.722Z,17.05
2022-08-30T06:16:25.380Z,17.04
2022-08-30T06:18:52.877Z,17.09
2022-08-30T06:21:22.333Z,17.34
2022-08-30T06:23:49.567Z,17.68
2022-08-30T06:26:16.889Z,17.56
2022-08-30T06:28:43.620Z,17.64
2022-08-30T06:31:12.489Z,17.98
2022-08-30T06:33:39.914Z,17.97
2022-08-30T06:36:09.809Z,18.19
2022-08-30T06:38:37.072Z,19.79
2022-08-30T06:41:13.395Z,20.71
2022-08-30T06:43:40.506Z,21.87
2022-08-30T06:46:11.939Z,22.38
2022-08-30T06:48:38.808Z,23.45
2022-08-30T06:51:09.137Z,23.48
2022-08-30T06:53:38.060Z,23.12
2022-08-30T06:56:08.516Z,23.41
2022-08-30T06:58:37.510Z,24.21
2022-08-30T07:01:08.467Z,24.38
2022-08-30T07:03:35.628Z,24.85
2022-08-30T07:06:02.372Z,24.94
2022-08-30T07:08:29.295Z,25.25
2022-08-30T07:10:55.992Z,24.90
2022-08-30T07:13:24.083Z,24.96
2022-08-30T07:15:51.810Z,25.78
2022-08-30T07:18:37.673Z,26.31
2022-08-30T07:21:33.602Z,26.42
2022-08-30T07:24:06.114Z,26.08
2022-08-30T07:26:41.303Z,26.04
2022-08-30T07:29:09.326Z,26.34
2022-08-30T07:31:37.546Z,26.91
2022-08-30T07:34:05.700Z,26.91
2022-08-30T07:36:32.982Z,27.03
2022-08-30T07:39:02.422Z,26.90
2022-08-30T07:41:38.536Z,27.36
2022-08-30T07:44:07.398Z,27.13
2022-08-30T07:46:34.224Z,27.39
2022-08-30T07:49:04.130Z,27.11
2022-08-30T07:51:31.756Z,26.96
2022-08-30T07:53:58.661Z,26.69
2022-08-30T07:56:25.661Z,26.81
2022-08-30T07:58:53.289Z,27.27
2022-08-30T08:01:21.042Z,27.66
2022-08-30T08:03:50.400Z,27.51
2022-08-30T08:06:19.548Z,27.11
2022-08-30T08:08:46.460Z,27.39
2022-08-30T08:11:17.018Z,26.48
2022-08-30T08:13:53.632Z,25.70
2022-08-30T08:16:23.254Z,25.80
2022-08-30T08:18:50.353Z,25.48
2022-08-30T08:21:16.906Z,25.21
2022-08-30T08:23:46.044Z,25.24
2022-08-30T08:26:14.769Z,25.58
2022-08-30T08:28:41.444Z,26.29
2022-08-30T08:31:19.541Z,26.13
2022-08-30T08:33:46.195Z,26.26
2022-08-30T08:36:13.018Z,27.00
2022-08-30T08:38:39.678Z,27.05
2022-08-30T08:41:13.221Z,26.90
2022-08-30T08:43:40.480Z,26.50
2022-08-30T08:46:36.448Z,25.61
2022-08-30T08:49:08.571Z,25.52
2022-08-30T08:51:57.662Z,25.65
2022-08-30T08:54:49.349Z,25.79
2022-08-30T08:57:17.038Z,25.53
2022-08-30T08:59:45.602Z,25.93
2022-08-30T09:02:28.515Z,26.19
2022-08-30T09:05:01.945Z,25.98
2022-08-30T09:07:34.740Z,26.17
2022-08-30T09:10:01.739Z,26.11
2022-08-30T09:12:28.950Z,26.25
2022-08-30T09:15:05.906Z,26.35
2022-08-30T09:17:50.009Z,25.86
2022-08-30T09:20:43.271Z,25.93
2022-08-30T09:23:16.367Z,26.05
2022-08-30T09:25:59.285Z,25.81
2022-08-30T09:28:28.524Z,26.07
2022-08-30T09:31:12.092Z,26.01
2022-08-30T09:33:39.263Z,25.80
2022-08-30T09:36:25.602Z,25.65
2022-08-30T09:39:13.692Z,25.11
2022-08-30T09:41:43.673Z,24.95
2022-08-30T09:44:16.574Z,25.11
2022-08-30T09:46:47.349Z,25.04
2022-08-30T09:49:31.993Z,24.96
2022-08-30T09:52:26.345Z,24.78
2022-08-30T09:55:14.428Z,24.62
2022-08-30T09:57:48.997Z,24.56
2022-08-30T10:00:22.705Z,24.47
2022-08-30T10:03:03.512Z,24.39
2022-08-30T10:05:30.794Z,24.36
2022-08-30T10:08:06.503Z,24.34
2022-08-30T10:10:56.189Z,24.41
2022-08-30T10:13:29.617Z,24.74
2022-08-30T10:16:09.394Z,24.90
2022-08-30T10:18:48.085Z,24.84
2022-08-30T10:21:26.948Z,24.71
2022-08-30T10:23:56.459Z,24.73
2022-08-30T10:26:32.801Z,24.71
2022-08-30T10:29:06.353Z,24.68
2022-08-30T10:31:48.797Z,24.73
2022-08-30T10:34:25.198Z,24.60
2022-08-30T10:36:59.871Z,24.65
2022-08-30T10:39:32.768Z,24.77
2022-08-30T10:42:17.695Z,24.82
2022-08-30T10:44:49.781Z,24.93
2022-08-30T10:47:27.812Z,25.17
2022-08-30T10:50:04.170Z,25.38
2022-08-30T10:52:41.009Z,25.43
2022-08-30T10:55:18.933Z,25.56
2022-08-30T10:57:48.086Z,25.43
2022-08-30T11:00:28.528Z,25.43
2022-08-30T11:03:36.334Z,25.41
2022-08-30T11:06:35.417Z,25.47
2022-08-30T11:09:20.209Z,25.58
2022-08-30T11:12:11.142Z,25.53
2022-08-30T11:14:43.996Z,25.49
2022-08-30T11:17:40.232Z,25.36
2022-08-30T11:20:29.656Z,25.44
2022-08-30T11:23:26.832Z,25.55
2022-08-30T11:25:59.381Z,25.56
2022-08-30T11:28:38.500Z,25.72
2022-08-30T11:31:32.974Z,25.65
2022-08-30T11:34:00.892Z,25.68
2022-08-30T11:36:37.625Z,25.78
2022-08-30T11:39:31.930Z,25.85
2022-08-30T11:42:31.050Z,25.88
2022-08-30T11:45:25.130Z,25.99
2022-08-30T11:48:07.380Z,26.07
2022-08-30T11:50:52.668Z,25.90
2022-08-30T11:53:30.583Z,26.04
2022-08-30T11:56:18.625Z,26.02
2022-08-30T11:58:52.024Z,25.98
2022-08-30T12:01:51.720Z,26.04
2022-08-30T12:04:17.309Z,26.06
2022-08-30T12:06:52.295Z,26.12
2022-08-30T12:09:24.929Z,26.36
2022-08-30T12:11:53.686Z,26.24
2022-08-30T12:14:51.617Z,26.14
2022-08-30T12:17:42.313Z,26.18
2022-08-30T12:20:22.564Z,26.19
2022-08-30T12:22:50.883Z,26.06
2022-08-30T12:25:39.118Z,26.06
2022-08-30T12:28:28.091Z,26.24
2022-08-30T12:30:55.428Z,26.18
2022-08-30T12:33:40.184Z,26.12
2022-08-30T12:36:13.134Z,26.15
2022-08-30T12:38:40.650Z,26.12
2022-08-30T12:41:07.258Z,26.16
2022-08-30T12:43:47.552Z,26.24
2022-08-30T12:46:20.133Z,26.20
2022-08-30T12:48:48.222Z,26.08
2022-08-30T12:51:37.223Z,26.13
2022-08-30T12:54:14.746Z,26.14
2022-08-30T12:57:03.705Z,26.17
2022-08-30T13:00:03.630Z,26.25
2022-08-30T13:02:52.222Z,26.20
2022-08-30T13:05:47.902Z,26.02
2022-08-30T13:08:14.810Z,25.98
2022-08-30T13:10:54.714Z,25.97
2022-08-30T13:13:31.707Z,25.89
2022-08-30T13:16:11.900Z,25.97
2022-08-30T13:18:40.082Z,25.99
2022-08-30T13:21:26.811Z,26.05
2022-08-30T13:24:04.832Z,26.01
2022-08-30T13:26:35.643Z,26.04
2022-08-30T13:29:10.428Z,25.98
2022-08-30T13:31:37.404Z,26.01
2022-08-30T13:34:05.033Z,25.97
2022-08-30T13:36:35.397Z,25.97
2022-08-30T13:39:05.375Z,26.00
2022-08-30T13:41:34.483Z,26.00
2022-08-30T13:44:12.971Z,26.14
2022-08-30T13:46:43.019Z,26.07
2022-08-30T13:52:19.864Z,26.23
2022-08-30T13:54:51.129Z,26.27
2022-08-30T14:00:12.678Z,26.17
2022-08-30T14:02:45.464Z,26.06
2022-08-30T14:05:46.369Z,26.04
2022-08-30T14:08:01.724Z,26.09
2022-08-30T14:10:31.053Z,26.11
2022-08-30T14:13:04.824Z,26.02
2022-08-30T14:15:38.850Z,26.06
2022-08-30T14:18:07.009Z,26.07
2022-08-30T14:20:38.728Z,26.08
2022-08-30T14:23:10.307Z,25.96
2022-08-30T14:25:40.855Z,26.06
2022-08-30T14:28:08.135Z,26.10
2022-08-30T14:30:36.494Z,26.22
2022-08-30T14:33:05.294Z,26.31
2022-08-30T14:35:32.110Z,26.33
2022-08-30T14:37:59.327Z,26.28
2022-08-30T14:40:25.948Z,26.30
2022-08-30T14:42:52.591Z,26.37
2022-08-30T14:45:19.528Z,26.28
2022-08-30T14:47:47.131Z,26.16
2022-08-30T14:50:15.239Z,26.23
2022-08-30T14:52:42.144Z,26.35
2022-08-30T14:55:17.014Z,26.38
2022-08-30T14:57:46.497Z,26.29
2022-08-30T15:00:14.404Z,26.31
2022-08-30T15:02:41.019Z,26.27
2022-08-30T15:05:08.416Z,26.42
2022-08-30T15:07:37.536Z,26.33
2022-08-30T15:10:05.896Z,26.36
2022-08-30T15:12:32.779Z,26.36
2022-08-30T15:14:59.778Z,26.37
2022-08-30T15:17:26.544Z,26.41
2022-08-30T15:19:54.492Z,26.41
2022-08-30T15:22:21.079Z,26.37
2022-08-30T15:24:48.936Z,26.22
2022-08-30T15:27:19.756Z,26.34
2022-08-30T15:29:46.358Z,26.39
2022-08-30T15:32:13.650Z,26.36
2022-08-30T15:34:40.168Z,26.30
2022-08-30T15:37:07.675Z,26.25
2022-08-30T15:39:34.782Z,26.22
2022-08-30T15:42:02.021Z,26.15
2022-08-30T15:44:31.457Z,25.99
2022-08-30T15:47:00.850Z,26.04
2022-08-30T15:49:30.060Z,26.02
2022-08-30T15:52:01.744Z,25.98
2022-08-30T15:54:28.316Z,25.89
2022-08-30T15:56:59.386Z,25.82
2022-08-30T15:59:28.034Z,25.84
2022-08-30T16:01:54.898Z,25.79
2022-08-30T16:04:26.253Z,25.81
2022-08-30T16:06:53.457Z,25.71
2022-08-30T16:09:20.743Z,25.55
2022-08-30T16:11:48.128Z,25.59
2022-08-30T16:14:14.772Z,25.47
2022-08-30T16:16:42.131Z,25.48
2022-08-30T16:19:09.415Z,25.45
2022-08-30T16:21:37.332Z,25.44
2022-08-30T16:24:05.839Z,25.38
2022-08-30T16:26:34.496Z,25.30
2022-08-30T16:29:02.144Z,25.22
2022-08-30T16:31:31.650Z,25.16
2022-08-30T16:34:02.844Z,25.18
2022-08-30T16:36:32.440Z,25.13
2022-08-30T16:39:02.614Z,25.11
2022-08-30T16:41:31.487Z,25.09
2022-08-30T16:44:01.723Z,25.05
2022-08-30T16:46:30.992Z,25.04
2022-08-30T16:49:01.362Z,25.02
2022-08-30T16:51:31.537Z,25.02
2022-08-30T16:54:02.076Z,24.98
2022-08-30T16:56:32.911Z,25.00
2022-08-30T16:59:02.474Z,24.83
2022-08-30T17:01:34.947Z,24.91
2022-08-30T17:04:02.231Z,24.88
2022-08-30T17:06:28.909Z,24.84
2022-08-30T17:08:56.309Z,24.81
2022-08-30T17:11:25.953Z,24.81
2022-08-30T17:13:53.036Z,24.79
2022-08-30T17:16:22.476Z,24.70
2022-08-30T17:18:59.750Z,24.62
2022-08-30T17:21:30.424Z,24.59
2022-08-30T17:24:01.435Z,24.52
2022-08-30T17:26:31.119Z,24.50
2022-08-30T17:28:58.157Z,24.52
2022-08-30T17:34:17.387Z,24.39
2022-08-30T17:36:44.011Z,24.37
2022-08-30T17:39:11.826Z,24.30
2022-08-30T17:41:45.188Z,24.23
2022-08-30T17:44:19.047Z,24.12
2022-08-30T17:46:45.758Z,24.08
2022-08-30T17:49:13.053Z,24.02
2022-08-30T17:51:42.531Z,23.91
2022-08-30T17:54:13.115Z,23.78
2022-08-30T17:56:51.124Z,23.74
2022-08-30T17:59:17.898Z,23.68
2022-08-30T18:01:44.993Z,23.60
2022-08-30T18:04:14.013Z,23.51
2022-08-30T18:06:46.384Z,23.45
2022-08-30T18:09:13.255Z,23.40
2022-08-30T18:11:41.286Z,23.33
2022-08-30T18:14:10.818Z,23.27
2022-08-30T18:16:38.577Z,23.20
2022-08-30T18:19:14.295Z,23.12
2022-08-30T18:21:41.799Z,23.07
2022-08-30T18:24:08.934Z,22.99
2022-08-30T18:26:42.911Z,22.87
2022-08-30T18:29:10.581Z,22.82
2022-08-30T18:31:37.098Z,22.74
2022-08-30T18:34:03.866Z,22.68
2022-08-30T18:36:31.020Z,22.60
2022-08-30T18:39:00.930Z,22.54
2022-08-30T18:41:30.063Z,22.49
2022-08-30T18:44:17.128Z,22.43
2022-08-30T18:46:56.350Z,22.35
2022-08-30T18:49:24.326Z,22.28
2022-08-30T18:51:50.881Z,22.20
2022-08-30T18:54:20.938Z,22.08
2022-08-30T18:56:47.551Z,22.06
2022-08-30T18:59:14.163Z,21.98
2022-08-30T19:01:42.512Z,21.92
2022-08-30T19:04:11.403Z,21.84
2022-08-30T19:06:49.963Z,21.70
2022-08-30T19:09:18.997Z,21.72
2022-08-30T19:11:45.525Z,21.64
2022-08-30T19:14:12.244Z,21.59
2022-08-30T19:16:40.220Z,21.47
2022-08-30T19:19:10.045Z,21.46
2022-08-30T19:21:40.101Z,21.35
2022-08-30T19:24:07.824Z,21.34
2022-08-30T19:26:35.831Z,21.30
2022-08-30T19:29:03.216Z,21.26
2022-08-30T19:31:29.838Z,21.21
2022-08-30T19:33:56.597Z,21.09
2022-08-30T19:36:26.273Z,21.09
2022-08-30T19:38:55.821Z,21.03
2022-08-30T19:41:22.948Z,20.98
2022-08-30T19:43:51.037Z,20.93
2022-08-30T19:46:17.875Z,20.87
2022-08-30T19:48:44.474Z,20.85
2022-08-30T19:51:13.764Z,20.77
2022-08-30T19:53:40.882Z,20.76
2022-08-30T19:56:08.070Z,20.72
2022-08-30T19:58:34.732Z,20.60
2022-08-30T20:01:11.623Z,20.60
2022-08-30T20:03:39.892Z,20.56
2022-08-30T20:06:07.497Z,20.53
2022-08-30T20:08:34.595Z,20.46
2022-08-30T20:11:01.136Z,20.48
2022-08-30T20:13:28.269Z,20.43
2022-08-30T20:15:58.955Z,20.40
2022-08-30T20:18:26.295Z,20.38
2022-08-30T20:20:53.543Z,20.26
2022-08-30T20:23:21.668Z,20.24
2022-08-30T20:24:23.739Z,24.41
2022-08-30T20:25:54.747Z,20.25
2022-08-30T20:28:22.092Z,20.21
2022-08-30T20:30:49.544Z,20.16
2022-08-30T20:33:19.975Z,20.11
2022-08-30T20:35:49.538Z,20.06
2022-08-30T20:38:21.697Z,20.02
2022-08-30T20:40:50.927Z,19.99
2022-08-30T20:43:18.979Z,19.91
2022-08-30T20:45:46.472Z,19.84
2022-08-30T20:48:13.851Z,19.83
2022-08-30T20:50:43.805Z,19.74
2022-08-30T20:53:11.216Z,19.75
2022-08-30T20:55:45.336Z,19.68
2022-08-30T20:58:12.936Z,19.65
2022-08-30T21:00:39.943Z,19.60
2022-08-30T21:03:26.084Z,19.54
2022-08-30T21:05:54.950Z,19.50
2022-08-30T21:08:21.558Z,19.46
2022-08-30T21:10:50.555Z,19.41
2022-08-30T21:13:17.283Z,19.33
2022-08-30T21:15:46.074Z,19.32
2022-08-30T21:18:14.178Z,19.25
2022-08-30T21:20:41.330Z,19.24
2022-08-30T21:23:08.088Z,19.21
2022-08-30T21:25:38.493Z,19.18
2022-08-30T21:28:07.718Z,19.14
2022-08-30T21:30:35.684Z,19.12
2022-08-30T21:33:06.391Z,19.09
2022-08-30T21:35:52.195Z,19.06
2022-08-30T21:38:19.965Z,19.06
2022-08-30T21:40:48.902Z,19.08
2022-08-30T21:43:16.101Z,18.99
2022-08-30T21:45:43.862Z,18.99
2022-08-30T21:48:14.974Z,19.04
2022-08-30T21:50:44.811Z,18.96
2022-08-30T21:53:11.468Z,19.02
2022-08-30T21:55:42.119Z,18.98
2022-08-30T21:58:10.474Z,19.02
2022-08-30T22:00:37.010Z,18.99
2022-08-30T22:03:03.901Z,19.03
2022-08-30T22:05:33.041Z,19.02
2022-08-30T22:07:59.923Z,18.99
2022-08-30T22:10:29.999Z,18.95
2022-08-30T22:12:59.011Z,18.98
2022-08-30T22:15:26.853Z,18.98
2022-08-30T22:17:55.857Z,19.00
2022-08-30T22:20:24.867Z,18.94
2022-08-30T22:22:56.562Z,18.99
2022-08-30T22:25:25.407Z,18.94
2022-08-30T22:27:52.074Z,18.96
2022-08-30T22:30:18.715Z,18.97
2022-08-30T22:32:45.280Z,18.95
2022-08-30T22:35:14.306Z,18.95
2022-08-30T22:37:41.749Z,18.91
2022-08-30T22:40:14.255Z,18.91
2022-08-30T22:42:41.035Z,18.91
2022-08-30T22:45:17.693Z,18.88
2022-08-30T22:47:46.531Z,18.87
2022-08-30T22:50:13.301Z,18.86
2022-08-30T22:52:41.067Z,18.85
2022-08-30T22:55:08.249Z,18.83
2022-08-30T22:57:37.243Z,18.71
2022-08-30T23:00:11.928Z,18.84
2022-08-30T23:02:38.655Z,18.81
2022-08-30T23:05:05.702Z,18.80
2022-08-30T23:07:32.287Z,18.77
2022-08-30T23:09:59.303Z,18.69
2022-08-30T23:12:26.712Z,18.67
2022-08-30T23:14:55.960Z,18.71
2022-08-30T23:17:22.550Z,18.60
2022-08-30T23:19:49.168Z,18.57
2022-08-30T23:22:16.137Z,18.54
2022-08-30T23:25:01.464Z,18.51
2022-08-30T23:27:46.444Z,18.35
2022-08-30T23:30:31.923Z,18.43
2022-08-30T23:33:17.265Z,18.40
2022-08-30T23:36:05.205Z,18.39
2022-08-30T23:38:50.383Z,18.37
2022-08-30T23:41:37.868Z,18.34
2022-08-30T23:44:23.280Z,18.26
2022-08-30T23:47:09.008Z,18.23
2022-08-30T23:49:55.102Z,18.18
2022-08-30T23:52:40.334Z,18.12
2022-08-30T23:55:26.718Z,18.09
2022-08-30T23:58:11.601Z,18.04
